Time;durP1;ratioP1;P1;durP2;ratioP2;P2;SDS_P1;SDS_P2;PMS_P1;PMS_P2;Temp;Humidity;BMP_temperature;BMP_pressure;BME280_temperature;BME280_humidity;BME280_pressure;Samples;Min_cycle;Max_cycle;Signal;HPM_P1;HPM_P2
2023/01/10 00:02:24;;;;;;;20.73;4.57;;;;;;;;;;4987968;28;20444;-80
2023/01/10 00:04:50;;;;;;;24.73;5.18;;;;;;;;;;5001776;28;20550;-80
2023/01/10 00:07:16;;;;;;;20.33;5.03;;;;;;;;;;5038191;28;20496;-80
2023/01/10 00:09:42;;;;;;;27.42;5.40;;;;;;;;;;5000702;28;20420;-79
2023/01/10 00:14:53;;;;;;;21.35;4.53;;;;;;;;;;5000725;28;20416;-79
2023/01/10 00:17:20;;;;;;;29.20;5.38;;;;;;;;;;5016857;28;20486;-80
2023/01/10 00:19:46;;;;;;;23.40;5.32;;;;;;;;;;5001555;28;20477;-80
2023/01/10 00:22:16;;;;;;;24.85;4.78;;;;;;;;;;5000734;28;20574;-80
2023/01/10 00:24:42;;;;;;;21.63;4.63;;;;;;;;;;4999640;28;20924;-80
2023/01/10 00:27:11;;;;;;;26.98;4.90;;;;;;;;;;4967530;28;20915;-80
2023/01/10 00:29:37;;;;;;;24.10;5.30;;;;;;;;;;4986522;28;20511;-80
2023/01/10 00:32:03;;;;;;;25.25;5.25;;;;;;;;;;5004761;28;20416;-80
2023/01/10 00:34:31;;;;;;;24.13;4.87;;;;;;;;;;5005024;28;20497;-80
2023/01/10 00:36:57;;;;;;;21.33;4.83;;;;;;;;;;5006598;28;20520;-80
2023/01/10 00:39:26;;;;;;;19.52;5.10;;;;;;;;;;5003682;28;20435;-77
2023/01/10 00:44:36;;;;;;;24.13;4.72;;;;;;;;;;5002493;28;20454;-79
2023/01/10 00:47:03;;;;;;;19.92;4.47;;;;;;;;;;5021012;28;20777;-79
2023/01/10 00:49:29;;;;;;;17.70;4.18;;;;;;;;;;4967933;28;20441;-79
2023/01/10 00:51:58;;;;;;;23.25;4.50;;;;;;;;;;5024055;28;20429;-79
2023/01/10 00:54:25;;;;;;;21.42;4.65;;;;;;;;;;5044238;28;20430;-79
2023/01/10 00:56:51;;;;;;;25.63;4.60;;;;;;;;;;4948560;28;20454;-79
2023/01/10 00:59:17;;;;;;;21.17;4.50;;;;;;;;;;5002257;28;20511;-79
2023/01/10 01:01:43;;;;;;;24.90;4.27;;;;;;;;;;5006188;28;20611;-78
2023/01/10 01:04:09;;;;;;;23.45;4.40;;;;;;;;;;5027624;27;20432;-79
2023/01/10 01:06:35;;;;;;;26.00;4.45;;;;;;;;;;5008272;28;20474;-79
2023/01/10 01:09:01;;;;;;;18.15;4.07;;;;;;;;;;5003537;28;20463;-79
2023/01/10 01:11:27;;;;;;;18.10;3.60;;;;;;;;;;4981337;28;20488;-79
2023/01/10 01:13:54;;;;;;;16.45;3.72;;;;;;;;;;5001646;28;20913;-79
2023/01/10 01:16:21;;;;;;;19.08;4.03;;;;;;;;;;5025935;28;20469;-76
2023/01/10 01:18:47;;;;;;;23.63;4.78;;;;;;;;;;5025434;28;20430;-79
2023/01/10 01:21:13;;;;;;;20.87;4.37;;;;;;;;;;5012117;28;20943;-79
2023/01/10 01:23:39;;;;;;;24.42;4.57;;;;;;;;;;5008164;28;20504;-80
2023/01/10 01:26:05;;;;;;;27.52;4.88;;;;;;;;;;5118612;27;20412;-80
2023/01/10 01:28:31;;;;;;;22.70;4.68;;;;;;;;;;5053160;28;20424;-79
2023/01/10 01:30:58;;;;;;;19.27;4.72;;;;;;;;;;5010376;28;20908;-79
2023/01/10 01:33:24;;;;;;;23.63;5.17;;;;;;;;;;5027767;28;20813;-79
2023/01/10 01:35:50;;;;;;;21.55;4.30;;;;;;;;;;5096896;28;20400;-79
2023/01/10 01:38:16;;;;;;;21.90;4.60;;;;;;;;;;5051481;28;20699;-80
2023/01/10 01:40:43;;;;;;;24.77;5.10;;;;;;;;;;5072409;28;20416;-80
2023/01/10 01:43:22;;;;;;;22.02;5.13;;;;;;;;;;5027344;28;20957;-80
2023/01/10 01:45:48;;;;;;;24.00;5.57;;;;;;;;;;4992146;28;20464;-80
2023/01/10 01:48:19;;;;;;;20.48;4.55;;;;;;;;;;4992123;28;20431;-80
2023/01/10 01:50:51;;;;;;;25.27;5.07;;;;;;;;;;4994116;28;20822;-80
2023/01/10 01:53:20;;;;;;;21.38;5.00;;;;;;;;;;4993889;28;20495;-80
2023/01/10 01:55:47;;;;;;;23.85;5.10;;;;;;;;;;4993281;28;20433;-80
2023/01/10 01:58:15;;;;;;;26.67;5.68;;;;;;;;;;5011207;28;20417;-80
2023/01/10 02:00:41;;;;;;;19.33;4.88;;;;;;;;;;5005101;28;20719;-80
2023/01/10 02:03:08;;;;;;;21.20;5.28;;;;;;;;;;5007284;28;20443;-80
2023/01/10 02:05:35;;;;;;;23.92;4.60;;;;;;;;;;5025140;27;20790;-80
2023/01/10 02:08:01;;;;;;;20.50;4.30;;;;;;;;;;5002998;28;20437;-80
2023/01/10 02:10:36;;;;;;;20.00;4.45;;;;;;;;;;5005372;28;20961;-80
2023/01/10 02:13:04;;;;;;;20.88;4.22;;;;;;;;;;4990483;28;20430;-80
2023/01/10 02:15:30;;;;;;;18.75;3.72;;;;;;;;;;5000792;28;20430;-80
2023/01/10 02:17:58;;;;;;;20.10;4.05;;;;;;;;;;4973399;28;20422;-80
2023/01/10 02:20:25;;;;;;;20.13;4.25;;;;;;;;;;5022672;28;20427;-80
2023/01/10 02:22:51;;;;;;;22.02;3.65;;;;;;;;;;5022719;28;20452;-80
2023/01/10 02:25:32;;;;;;;18.42;4.03;;;;;;;;;;5022851;28;20425;-80
2023/01/10 02:28:04;;;;;;;21.40;4.18;;;;;;;;;;4988773;28;20449;-80
2023/01/10 02:30:30;;;;;;;18.98;3.35;;;;;;;;;;5007890;28;20426;-80
2023/01/10 02:33:05;;;;;;;22.97;4.20;;;;;;;;;;5024251;27;20832;-79
2023/01/10 02:35:58;;;;;;;20.27;4.57;;;5.30;99.90;;;;;;5005981;28;20816;-80
2023/01/10 02:38:30;;;;;;;19.95;4.65;;;;;;;;;;4988870;28;20431;-79
2023/01/10 02:40:59;;;;;;;18.63;3.78;;;;;;;;;;4989176;28;20437;-79
2023/01/10 02:43:32;;;;;;;20.13;4.30;;;;;;;;;;5023936;28;20419;-79
2023/01/10 02:46:16;;;;;;;17.88;4.05;;;5.70;99.90;;;;;;4989334;28;20431;-79
2023/01/10 02:48:42;;;;;;;19.83;3.88;;;;;;;;;;4989163;28;20483;-79
2023/01/10 02:51:28;;;;;;;22.37;4.17;;;;;;;;;;5021512;28;20429;-80
2023/01/10 02:54:00;;;;;;;19.63;3.78;;;;;;;;;;5022408;28;20954;-79
2023/01/10 02:56:36;;;;;;;20.77;4.32;;;;;;;;;;5004751;28;20934;-79
2023/01/10 02:59:11;;;;;;;24.90;4.40;;;;;;;;;;4982362;28;20506;-79
2023/01/10 03:01:45;;;;;;;19.77;3.88;;;;;;;;;;4983017;28;20505;-79
2023/01/10 03:04:23;;;;;;;17.88;3.92;;;;;;;;;;4990296;28;20422;-79
2023/01/10 03:07:07;;;;;;;26.83;4.47;;;;;;;;;;5022475;27;20770;-79
2023/01/10 03:09:47;;;;;;;18.08;3.75;;;5.90;99.90;;;;;;4986292;28;20423;-79
2023/01/10 03:12:31;;;;;;;16.02;3.55;;;5.90;99.90;;;;;;5022604;28;20421;-79
2023/01/10 03:14:58;;;;;;;18.35;4.15;;;;;;;;;;4989017;28;20410;-79
2023/01/10 03:17:25;;;;;;;18.13;3.95;;;;;;;;;;4989570;28;20926;-79
2023/01/10 03:19:55;;;;;;;18.13;4.10;;;6.10;99.90;;;;;;4988498;28;20422;-79
2023/01/10 03:22:22;;;;;;;18.13;3.92;;;;;;;;;;5044207;28;20437;-80
2023/01/10 03:24:49;;;;;;;19.52;4.00;;;;;;;;;;4995873;28;20742;-80
2023/01/10 03:27:19;;;;;;;17.23;4.85;;;;;;;;;;5019959;28;20426;-80
2023/01/10 03:29:55;;;;;;;16.30;3.67;;;;;;;;;;4989296;28;20420;-81
2023/01/10 03:32:25;;;;;;;22.25;4.20;;;6.20;99.90;;;;;;5031628;28;20428;-80
2023/01/10 03:34:51;;;;;;;20.58;4.05;;;;;;;;;;5025993;28;20437;-80
2023/01/10 03:37:24;;;;;;;19.90;4.53;;;;;;;;;;5085487;28;20422;-80
2023/01/10 03:39:57;;;;;;;26.70;4.85;;;;;;;;;;5052369;28;20468;-80
2023/01/10 03:44:42;;;;;;;26.00;5.25;;;;;;;;;;4989054;28;20828;-80
2023/01/10 03:45:16;;;;;;;22.73;4.88;;;;;;;;;;4988543;28;20981;-79
2023/01/10 03:47:46;;;;;;;20.05;4.10;;;;;;;;;;4995229;28;20424;-79
2023/01/10 03:50:14;;;;;;;19.83;4.23;;;;;;;;;;5019690;28;20414;-79
2023/01/10 03:52:41;;;;;;;19.20;4.07;;;;;;;;;;5087357;28;20430;-79
2023/01/10 03:55:10;;;;;;;22.17;4.50;;;6.20;99.90;;;;;;4996579;28;20426;-80
2023/01/10 03:57:36;;;;;;;23.10;4.75;;;;;;;;;;4972746;28;20750;-80
2023/01/10 04:00:03;;;;;;;23.40;4.45;;;6.00;99.90;;;;;;4982998;28;20492;-79
2023/01/10 04:02:31;;;;;;;23.35;4.90;;;;;;;;;;5024752;28;20435;-79
2023/01/10 04:04:58;;;;;;;23.38;4.43;;;;;;;;;;5012876;28;20912;-79
2023/01/10 04:07:26;;;;;;;26.40;5.13;;;;;;;;;;5021710;28;20493;-79
2023/01/10 04:09:52;;;;;;;22.55;4.93;;;;;;;;;;5003794;28;20420;-79
2023/01/10 04:12:18;;;;;;;26.13;4.85;;;;;;;;;;4985098;28;20813;-79
2023/01/10 04:14:45;;;;;;;25.23;4.88;;;;;;;;;;4989290;28;20752;-79
2023/01/10 04:17:12;;;;;;;29.42;4.70;;;;;;;;;;4973319;28;20439;-79
2023/01/10 04:19:38;;;;;;;22.45;4.10;;;;;;;;;;4995803;28;20815;-79
2023/01/10 04:22:07;;;;;;;24.85;4.40;;;;;;;;;;4997551;28;20949;-79
2023/01/10 04:24:33;;;;;;;28.23;5.38;;;;;;;;;;5002542;28;20425;-80
2023/01/10 04:26:59;;;;;;;22.23;4.30;;;;;;;;;;5006667;28;20471;-79
2023/01/10 04:29:26;;;;;;;25.05;4.82;;;;;;;;;;5011678;28;20807;-80
2023/01/10 04:31:52;;;;;;;24.00;5.38;;;;;;;;;;5066573;28;20445;-80
2023/01/10 04:34:21;;;;;;;23.17;5.40;;;;;;;;;;5015818;28;20480;-79
2023/01/10 04:36:47;;;;;;;21.33;5.38;;;;;;;;;;5003078;28;20423;-79
2023/01/10 04:39:13;;;;;;;22.90;5.15;;;;;;;;;;5039075;28;20510;-75
2023/01/10 04:41:39;;;;;;;26.75;5.55;;;;;;;;;;5066296;28;20852;-75
2023/01/10 04:44:06;;;;;;;22.27;4.70;;;;;;;;;;4987095;28;20426;-75
2023/01/10 04:46:32;;;;;;;22.02;4.90;;;;;;;;;;5019492;28;20422;-75
2023/01/10 04:48:58;;;;;;;18.92;4.28;;;;;;;;;;4976076;28;20849;-75
2023/01/10 04:51:27;;;;;;;20.60;4.13;;;;;;;;;;5059078;28;20420;-75
2023/01/10 04:53:54;;;;;;;18.58;4.07;;;;;;;;;;5086859;28;20428;-75
2023/01/10 04:56:21;;;;;;;24.33;5.72;;;;;;;;;;5099743;28;20988;-75
2023/01/10 04:58:47;;;;;;;19.30;4.68;;;;;;;;;;5054827;28;20813;-75
2023/01/10 05:01:15;;;;;;;20.88;4.90;;;;;;;;;;5099227;28;20427;-75
2023/01/10 05:03:41;;;;;;;23.20;5.32;;;;;;;;;;4982869;28;20439;-75
2023/01/10 05:06:07;;;;;;;19.40;4.82;;;;;;;;;;4983863;28;20442;-75
2023/01/10 05:08:34;;;;;;;25.83;5.22;;;;;;;;;;4998990;28;20861;-76
2023/01/10 05:11:00;;;;;;;26.55;5.93;;;;;;;;;;4968068;28;20430;-76
2023/01/10 05:13:26;;;;;;;23.05;5.15;;;;;;;;;;4968890;28;20424;-75
2023/01/10 05:15:56;;;;;;;20.60;4.90;;;6.30;99.90;;;;;;5002633;28;20460;-76
2023/01/10 05:18:23;;;;;;;20.70;4.28;;;;;;;;;;4986505;28;20511;-75
2023/01/10 05:20:49;;;;;;;18.77;3.90;;;;;;;;;;5002449;28;20463;-75
2023/01/10 05:23:15;;;;;;;20.98;3.88;;;;;;;;;;5003109;28;20431;-75
2023/01/10 05:25:42;;;;;;;17.15;4.30;;;;;;;;;;5003112;28;20826;-75
2023/01/10 05:28:08;;;;;;;14.23;4.28;;;;;;;;;;5004170;28;20451;-76
2023/01/10 05:30:34;;;;;;;20.65;4.53;;;;;;;;;;5002524;28;20427;-75
2023/01/10 05:33:00;;;;;;;22.50;5.23;;;;;;;;;;5001407;28;21062;-75
2023/01/10 05:35:26;;;;;;;18.23;4.65;;;;;;;;;;5019338;28;20420;-75
2023/01/10 05:37:52;;;;;;;18.58;4.53;;;;;;;;;;4986818;28;20919;-75
2023/01/10 05:40:19;;;;;;;18.10;4.60;;;;;;;;;;5002398;28;20520;-75
2023/01/10 05:42:45;;;;;;;13.27;3.70;;;;;;;;;;5018646;28;20464;-75
2023/01/10 05:45:11;;;;;;;17.50;4.60;;;;;;;;;;5001922;28;20434;-76
2023/01/10 05:47:37;;;;;;;20.13;4.70;;;;;;;;;;4970530;28;20528;-76
2023/01/10 05:50:03;;;;;;;21.30;4.85;;;;;;;;;;5001811;28;20422;-75
2023/01/10 05:52:29;;;;;;;17.73;5.15;;;;;;;;;;4969789;28;20786;-75
2023/01/10 05:54:55;;;;;;;17.27;4.25;;;;;;;;;;5003453;28;20407;-75
2023/01/10 05:57:23;;;;;;;13.93;3.75;;;;;;;;;;5003095;28;20412;-75
2023/01/10 05:59:49;;;;;;;16.17;3.80;;;;;;;;;;4985251;28;20424;-75
2023/01/10 06:02:15;;;;;;;14.32;4.03;;;;;;;;;;4971135;28;20429;-75
2023/01/10 06:04:42;;;;;;;14.13;4.00;;;;;;;;;;5019695;28;20631;-75
2023/01/10 06:07:08;;;;;;;11.05;3.28;;;;;;;;;;5022855;28;20410;-75
2023/01/10 06:09:34;;;;;;;14.10;4.03;;;;;;;;;;5020789;28;20973;-75
2023/01/10 06:12:00;;;;;;;15.02;4.80;;;;;;;;;;4960559;28;20798;-75
2023/01/10 06:14:26;;;;;;;21.70;5.68;;;;;;;;;;5044724;28;20442;-75
2023/01/10 06:16:53;;;;;;;14.82;3.80;;;;;;;;;;4990017;28;20582;-75
2023/01/10 06:19:19;;;;;;;13.27;3.70;;;;;;;;;;5005582;28;20522;-75
2023/01/10 06:21:45;;;;;;;14.70;3.72;;;;;;;;;;5020395;28;20499;-75
2023/01/10 06:24:11;;;;;;;16.90;4.80;;;;;;;;;;4988823;28;20425;-75
2023/01/10 06:26:37;;;;;;;15.82;4.38;;;;;;;;;;5012972;28;20428;-75
2023/01/10 06:29:03;;;;;;;14.27;3.75;;;;;;;;;;5004422;28;20779;-75
2023/01/10 06:31:29;;;;;;;15.20;3.63;;;;;;;;;;5002620;28;20519;-76
2023/01/10 06:33:55;;;;;;;17.58;4.60;;;;;;;;;;4964586;28;20429;-75
2023/01/10 06:36:21;;;;;;;18.85;4.68;;;;;;;;;;4991268;28;20829;-75
2023/01/10 06:38:47;;;;;;;19.95;4.93;;;;;;;;;;5016458;28;20436;-75
2023/01/10 06:41:13;;;;;;;27.67;8.05;;;;;;;;;;4965469;28;20439;-75
2023/01/10 06:43:46;;;;;;;19.45;4.80;;;;;;;;;;4975289;28;20421;-75
2023/01/10 06:46:15;;;;;;;24.38;5.38;;;;;;;;;;4970993;28;20426;-75
2023/01/10 06:48:42;;;;;;;19.80;5.07;;;;;;;;;;5014438;28;20424;-75
2023/01/10 06:51:09;;;;;;;23.17;8.73;;;;;;;;;;5001065;28;20432;-75
2023/01/10 06:53:35;;;;;;;24.92;5.45;;;;;;;;;;5012865;28;20436;-76
2023/01/10 06:56:01;;;;;;;25.33;5.20;;;;;;;;;;5000705;28;20424;-75
2023/01/10 06:58:27;;;;;;;19.67;5.45;;;;;;;;;;5010611;28;20550;-75
2023/01/10 07:00:54;;;;;;;23.83;7.78;;;;;;;;;;5006625;28;20424;-75
2023/01/10 07:03:20;;;;;;;29.90;7.30;;;;;;;;;;4978261;28;20474;-75
2023/01/10 07:05:46;;;;;;;26.80;6.43;;;;;;;;;;4987347;28;20465;-75
2023/01/10 07:08:12;;;;;;;21.08;6.07;;;;;;;;;;5018994;28;20422;-76
2023/01/10 07:10:42;;;;;;;25.50;6.63;;;;;;;;;;5006170;28;20777;-75
2023/01/10 07:13:08;;;;;;;24.80;6.53;;;;;;;;;;4998481;28;20416;-75
2023/01/10 07:15:35;;;;;;;36.25;8.70;;;;;;;;;;5019693;28;20901;-75
2023/01/10 07:18:01;;;;;;;28.42;6.15;;;;;;;;;;5020969;28;20501;-75
2023/01/10 07:20:28;;;;;;;32.75;6.40;;;;;;;;;;5018368;28;20455;-76
2023/01/10 07:22:55;;;;;;;30.00;7.50;;;;;;;;;;4989117;28;20407;-75
2023/01/10 07:25:21;;;;;;;121.13;15.35;;;;;;;;;;4987211;28;20782;-75
2023/01/10 07:27:47;;;;;;;34.23;7.33;;;;;;;;;;5018202;28;20422;-75
2023/01/10 07:30:13;;;;;;;37.58;7.05;;;;;;;;;;5003292;28;20817;-75
2023/01/10 07:32:39;;;;;;;35.20;7.65;;;;;;;;;;4988122;28;20430;-75
2023/01/10 07:35:05;;;;;;;31.55;7.00;;;;;;;;;;5004112;28;20433;-75
2023/01/10 07:37:32;;;;;;;32.70;6.85;;;;;;;;;;4982331;28;20465;-75
2023/01/10 07:39:58;;;;;;;27.63;6.70;;;;;;;;;;4998013;28;20483;-75
2023/01/10 07:42:24;;;;;;;27.83;6.70;;;;;;;;;;4996909;28;20436;-75
2023/01/10 07:44:50;;;;;;;32.97;7.10;;;;;;;;;;5024244;28;20922;-76
2023/01/10 07:47:16;;;;;;;25.88;6.05;;;;;;;;;;4979529;28;20950;-76
2023/01/10 07:49:42;;;;;;;35.20;7.28;;;;;;;;;;5004507;28;20441;-75
2023/01/10 07:52:08;;;;;;;30.17;6.78;;;;;;;;;;4993637;28;20535;-76
2023/01/10 07:54:35;;;;;;;29.83;7.43;;;;;;;;;;5032691;27;20608;-76
2023/01/10 07:57:01;;;;;;;37.10;7.75;;;;;;;;;;4979894;28;20414;-76
2023/01/10 07:59:27;;;;;;;33.83;7.43;;;;;;;;;;5014384;28;20546;-76
2023/01/10 08:01:53;;;;;;;31.77;7.10;;;;;;;;;;4997249;28;20431;-78
2023/01/10 08:04:20;;;;;;;34.60;7.50;;;;;;;;;;5049101;28;20429;-75
2023/01/10 08:06:46;;;;;;;36.63;7.28;;;;;;;;;;4991064;28;20429;-76
2023/01/10 08:09:12;;;;;;;32.20;7.13;;;;;;;;;;4979778;28;20509;-76
2023/01/10 08:11:38;;;;;;;35.50;7.78;;;;;;;;;;5018777;28;20517;-76
2023/01/10 08:14:04;;;;;;;31.85;6.93;;;;;;;;;;4989521;28;20434;-76
2023/01/10 08:16:30;;;;;;;36.65;7.22;;;;;;;;;;4970647;28;20434;-76
2023/01/10 08:18:56;;;;;;;33.53;6.85;;;;;;;;;;5003330;28;20450;-76
2023/01/10 08:21:23;;;;;;;29.65;6.45;;;;;;;;;;4998426;28;20562;-76
2023/01/10 08:23:50;;;;;;;31.97;7.83;;;;;;;;;;5004263;28;20501;-76
2023/01/10 08:26:16;;;;;;;33.38;7.13;;;;;;;;;;5017023;28;20937;-76
2023/01/10 08:28:42;;;;;;;33.03;6.78;;;;;;;;;;5019903;28;20429;-76
2023/01/10 08:31:09;;;;;;;29.83;6.93;;;;;;;;;;5025046;28;20438;-76
2023/01/10 08:33:39;;;;;;;37.50;8.15;;;;;;;;;;4991638;28;20435;-76
2023/01/10 08:36:05;;;;;;;33.22;7.20;;;;;;;;;;4976875;28;20463;-76
2023/01/10 08:38:31;;;;;;;38.92;7.10;;;;;;;;;;4980261;28;20421;-76
2023/01/10 08:40:58;;;;;;;33.53;7.87;;;;;;;;;;4987182;28;20427;-75
2023/01/10 08:43:24;;;;;;;28.48;6.22;;;;;;;;;;4984420;28;20429;-76
2023/01/10 08:45:50;;;;;;;39.30;7.47;;;;;;;;;;5002776;28;20422;-76
2023/01/10 08:48:16;;;;;;;38.50;6.95;;;;;;;;;;5050656;28;20539;-76
2023/01/10 08:50:42;;;;;;;32.20;7.47;;;;;;;;;;5051994;27;20458;-76
2023/01/10 08:53:09;;;;;;;30.23;6.32;;;;;;;;;;4992010;28;20819;-76
2023/01/10 08:55:37;;;;;;;36.77;8.03;;;;;;;;;;5023832;27;20531;-76
2023/01/10 08:58:03;;;;;;;30.73;7.30;;;;;;;;;;5022555;28;20425;-75
2023/01/10 09:00:30;;;;;;;30.33;6.45;;;;;;;;;;5014953;28;20417;-76
2023/01/10 09:02:56;;;;;;;24.65;5.90;;;;;;;;;;4988385;28;20434;-76
2023/01/10 09:05:24;;;;;;;30.45;6.15;;;;;;;;;;5008240;28;20475;-76
2023/01/10 09:07:50;;;;;;;29.35;6.93;;;;;;;;;;5019208;27;20982;-77
2023/01/10 09:10:17;;;;;;;29.55;6.47;;;;;;;;;;4984702;28;20908;-76
2023/01/10 09:12:55;;;;;;;21.25;5.35;;;;;;;;;;5001269;28;20476;-76
2023/01/10 09:15:21;;;;;;;23.58;5.55;;;;;;;;;;5003345;28;20521;-76
2023/01/10 09:17:50;;;;;;;24.75;5.93;;;;;;;;;;4988987;28;20435;-76
2023/01/10 09:20:17;;;;;;;26.42;5.57;;;;;;;;;;5004488;28;20426;-76
2023/01/10 09:22:43;;;;;;;24.50;5.70;;;;;;;;;;4988013;28;20453;-76
2023/01/10 09:25:10;;;;;;;27.77;5.90;;;;;;;;;;5022721;28;20909;-76
2023/01/10 09:27:36;;;;;;;25.48;6.68;;;;;;;;;;5022732;28;20442;-76
2023/01/10 09:30:03;;;;;;;26.05;6.57;;;;;;;;;;4974238;28;20403;-76
2023/01/10 09:32:29;;;;;;;24.30;5.80;;;;;;;;;;4971857;28;20564;-76
2023/01/10 09:34:55;;;;;;;30.27;7.43;;;;;;;;;;4988851;28;20869;-76
2023/01/10 09:37:21;;;;;;;35.00;9.23;;;;;;;;;;4971517;28;21199;-75
2023/01/10 09:39:47;;;;;;;31.17;6.97;;;;;;;;;;5018069;28;20506;-75
2023/01/10 09:42:17;;;;;;;31.30;6.72;;;;;;;;;;4990470;28;20438;-76
2023/01/10 09:45:18;;;;;;;29.23;6.55;;;6.70;99.90;;;;;;5002246;28;20426;-76
2023/01/10 09:48:04;;;;;;;25.63;6.30;;;;;;;;;;4971939;28;20426;-76
2023/01/10 09:50:30;;;;;;;25.83;6.30;;;;;;;;;;5018375;28;20483;-76
2023/01/10 09:52:58;;;;;;;28.15;6.60;;;;;;;;;;4987458;28;20556;-76
2023/01/10 09:55:32;;;;;;;32.58;6.30;;;;;;;;;;5018408;28;20438;-76
2023/01/10 09:58:00;;;;;;;29.35;7.60;;;;;;;;;;5001947;28;20552;-76
2023/01/10 10:00:41;;;;;;;28.52;6.47;;;;;;;;;;5018659;28;20444;-76
2023/01/10 10:03:37;;;;;;;28.48;6.05;;;;;;;;;;4980329;28;20503;-78
2023/01/10 10:06:03;;;;;;;33.30;5.90;;;;;;;;;;4991311;28;20493;-76
2023/01/10 10:08:30;;;;;;;26.47;5.80;;;;;;;;;;5002701;28;20501;-77
2023/01/10 10:11:19;;;;;;;25.20;5.28;;;;;;;;;;5019768;28;20437;-76
2023/01/10 10:13:55;;;;;;;25.25;5.32;;;;;;;;;;4994119;28;20959;-76
2023/01/10 10:16:23;;;;;;;22.95;5.13;;;;;;;;;;4985493;28;20442;-77
2023/01/10 10:19:04;;;;;;;26.60;6.10;;;;;;;;;;4967863;28;20465;-77
2023/01/10 10:21:30;;;;;;;25.60;5.68;;;;;;;;;;5009984;28;21159;-77
2023/01/10 10:24:08;;;;;;;26.37;5.10;;;;;;;;;;4972515;28;20513;-77
2023/01/10 10:26:36;;;;;;;22.60;5.32;;;;;;;;;;5022404;28;20416;-77
2023/01/10 10:29:09;;;;;;;25.77;5.03;;;;;;;;;;5034991;28;20407;-77
2023/01/10 10:31:35;;;;;;;23.57;5.40;;;;;;;;;;5044173;28;20410;-76
2023/01/10 10:34:07;;;;;;;22.42;5.47;;;;;;;;;;4988206;28;20438;-76
2023/01/10 10:36:33;;;;;;;28.52;5.97;;;;;;;;;;4986626;28;20774;-76
2023/01/10 10:39:00;;;;;;;25.40;5.60;;;;;;;;;;5005045;28;20454;-76
2023/01/10 10:41:32;;;;;;;24.53;5.07;;;;;;;;;;4987506;28;20453;-82
2023/01/10 10:44:03;;;;;;;27.70;5.60;;;;;;;;;;4983672;28;20511;-81
2023/01/10 10:46:30;;;;;;;28.30;6.20;;;;;;;;;;5011902;28;20424;-82
2023/01/10 10:48:58;;;;;;;32.85;6.03;;;;;;;;;;5003808;28;20952;-82
2023/01/10 10:51:27;;;;;;;27.50;6.87;;;;;;;;;;4989211;28;20407;-82
2023/01/10 10:53:56;;;;;;;29.33;7.43;;;;;;;;;;4989353;28;20407;-82
2023/01/10 10:56:25;;;;;;;26.90;7.88;;;6.90;99.90;;;;;;4982385;28;20894;-82
2023/01/10 10:58:54;;;;;;;32.08;7.40;;;;;;;;;;5002129;28;20413;-81
2023/01/10 11:01:21;;;;;;;33.22;8.13;;;;;;;;;;4981496;28;20813;-82
2023/01/10 11:04:08;;;;;;;30.75;8.50;;;;;;;;;;4986888;28;20431;-82
2023/01/10 11:06:35;;;;;;;29.55;8.63;;;;;;;;;;5030717;28;20473;-82
2023/01/10 11:09:05;;;;;;;32.58;9.57;;;;;;;;;;5013069;28;20987;-82
2023/01/10 11:11:40;;;;;;;31.95;9.60;;;;;;;;;;5050750;27;20406;-82
2023/01/10 11:14:07;;;;;;;37.07;10.93;;;;;;;;;;4982073;28;20620;-82
2023/01/10 11:16:38;;;;;;;39.45;10.60;;;;;;;;;;5004000;28;20426;-83
2023/01/10 11:19:17;;;;;;;31.98;9.77;;;;;;;;;;4981018;28;20432;-82
2023/01/10 11:21:53;;;;;;;36.15;10.50;;;;;;;;;;4985949;28;20509;-82
2023/01/10 11:24:55;;;;;;;29.60;10.95;;;7.20;99.90;;;;;;4972942;28;20479;-82
2023/01/10 11:27:23;;;;;;;32.15;10.82;;;;;;;;;;4994593;28;20418;-82
2023/01/10 11:29:50;;;;;;;36.35;11.65;;;;;;;;;;4977822;28;20924;-82
2023/01/10 11:32:22;;;;;;;34.47;12.20;;;;;;;;;;4971470;28;20420;-82
2023/01/10 11:34:52;;;;;;;31.33;10.75;;;;;;;;;;4979724;28;20927;-82
2023/01/10 11:37:27;;;;;;;32.42;10.98;;;;;;;;;;4985284;28;20477;-82
2023/01/10 11:40:07;;;;;;;29.30;9.65;;;;;;;;;;5019236;28;20430;-82
2023/01/10 11:42:33;;;;;;;34.85;9.98;;;;;;;;;;5015448;28;20431;-83
2023/01/10 11:45:18;;;;;;;30.75;10.48;;;;;;;;;;4975109;28;20423;-82
2023/01/10 11:47:48;;;;;;;31.23;9.73;;;;;;;;;;4992136;28;20416;-82
2023/01/10 11:50:19;;;;;;;33.55;10.15;;;;;;;;;;5020623;28;20811;-83
2023/01/10 11:52:47;;;;;;;38.28;10.07;;;;;;;;;;4980601;28;20410;-82
2023/01/10 11:55:20;;;;;;;30.65;9.40;;;;;;;;;;5035972;28;20447;-83
2023/01/10 11:57:53;;;;;;;31.20;9.53;;;;;;;;;;5028607;28;20470;-82
2023/01/10 12:00:20;;;;;;;30.70;9.63;;;;;;;;;;5012848;28;20466;-81
2023/01/10 12:02:46;;;;;;;31.35;9.65;;;;;;;;;;4998763;28;20435;-82
2023/01/10 12:05:20;;;;;;;32.95;9.65;;;;;;;;;;5008695;28;20424;-82
2023/01/10 12:08:05;;;;;;;30.65;8.77;;;7.30;99.90;;;;;;4973043;28;20814;-82
2023/01/10 12:10:31;;;;;;;30.97;9.17;;;;;;;;;;4988062;28;20475;-83
2023/01/10 12:13:27;;;;;;;28.30;9.30;;;;;;;;;;5008717;28;20415;-83
2023/01/10 12:16:13;;;;;;;29.23;9.05;;;;;;;;;;5003474;28;20437;-83
2023/01/10 12:18:39;;;;;;;35.93;9.00;;;;;;;;;;4999025;28;20428;-83
2023/01/10 12:21:05;;;;;;;26.27;8.48;;;;;;;;;;5020255;28;20430;-83
2023/01/10 12:23:34;;;;;;;32.83;8.73;;;;;;;;;;4971152;28;20448;-83
2023/01/10 12:26:00;;;;;;;26.92;8.18;;;;;;;;;;5016373;28;20437;-82
2023/01/10 12:28:28;;;;;;;29.95;8.77;;;;;;;;;;4999885;28;20520;-82
2023/01/10 12:30:56;;;;;;;25.77;8.43;;;;;;;;;;5017225;28;20422;-82
2023/01/10 12:33:27;;;;;;;31.27;8.07;;;;;;;;;;4986827;28;20441;-82
2023/01/10 12:35:56;;;;;;;31.80;8.48;;;;;;;;;;4976999;28;20494;-82
2023/01/10 12:44:10;;;;;;;29.50;8.57;;;6.90;99.90;;;;;;4984224;28;20492;-82
2023/01/10 12:44:11;;;;;;;28.40;8.43;;;;;;;;;;4994598;28;20470;-82
2023/01/10 12:46:37;;;;;;;26.88;8.25;;;;;;;;;;5033548;28;20497;-82
2023/01/10 12:49:12;;;;;;;27.35;7.95;;;;;;;;;;5020404;28;20812;-82
2023/01/10 12:51:38;;;;;;;27.85;8.00;;;;;;;;;;4992554;28;20426;-82
2023/01/10 12:54:24;;;;;;;25.92;8.10;;;;;;;;;;4999139;28;20484;-82
2023/01/10 12:56:50;;;;;;;27.95;7.85;;;;;;;;;;5056512;28;20437;-83
2023/01/10 12:59:25;;;;;;;35.40;7.72;;;;;;;;;;5001674;28;20857;-82
2023/01/10 13:01:53;;;;;;;26.73;8.18;;;;;;;;;;4991983;28;20449;-82
2023/01/10 13:04:21;;;;;;;29.17;7.90;;;;;;;;;;5018085;28;21597;-81
2023/01/10 13:06:48;;;;;;;31.87;8.40;;;;;;;;;;4995768;28;20998;-81
2023/01/10 13:09:18;;;;;;;27.50;7.63;;;;;;;;;;5001003;28;20428;-81
2023/01/10 13:12:02;;;;;;;33.80;8.80;;;;;;;;;;4989280;28;20492;-81
2023/01/10 13:14:30;;;;;;;29.42;7.88;;;;;;;;;;4991080;28;20951;-81
2023/01/10 13:17:02;;;;;;;23.92;7.55;;;;;;;;;;4985455;28;20426;-82
2023/01/10 13:19:28;;;;;;;28.95;7.82;;;;;;;;;;4986150;28;20513;-81
2023/01/10 13:22:20;;;;;;;26.73;7.40;;;6.80;99.90;;;;;;4986593;28;20434;-81
2023/01/10 13:25:00;;;;;;;27.23;8.13;;;;;;;;;;5019685;28;20464;-81
2023/01/10 13:27:30;;;;;;;27.10;8.20;;;;;;;;;;4985087;28;20517;-81
2023/01/10 13:29:56;;;;;;;25.27;7.68;;;;;;;;;;5021686;28;21208;-81
2023/01/10 13:32:30;;;;;;;25.40;7.57;;;;;;;;;;5006534;28;20771;-81
2023/01/10 13:35:09;;;;;;;35.50;7.00;;;;;;;;;;5021768;28;20790;-81
2023/01/10 13:37:37;;;;;;;24.92;6.88;;;;;;;;;;5027228;28;20422;-81
2023/01/10 13:40:04;;;;;;;27.98;7.03;;;;;;;;;;4992019;28;20587;-80
2023/01/10 13:45:17;;;;;;;24.75;6.50;;;;;;;;;;4988903;28;20426;-77
2023/01/10 13:47:45;;;;;;;25.17;6.15;;;;;;;;;;5011114;28;20424;-77
2023/01/10 13:50:35;;;;;;;23.27;6.20;;;;;;;;;;5021116;27;20426;-77
2023/01/10 13:53:01;;;;;;;28.57;6.10;;;;;;;;;;5023196;28;20490;-76
2023/01/10 13:55:27;;;;;;;26.40;6.25;;;;;;;;;;5009802;28;20521;-77
2023/01/10 13:57:56;;;;;;;30.02;6.43;;;;;;;;;;5030391;27;20433;-78
2023/01/10 14:03:41;;;;;;;25.52;6.20;;;6.50;99.90;;;;;;4989245;28;20450;-78
2023/01/10 14:06:16;;;;;;;27.95;6.20;;;;;;;;;;5021984;28;20426;-77
2023/01/10 14:08:48;;;;;;;25.37;5.87;;;;;;;;;;4991748;28;20551;-77
2023/01/10 14:11:14;;;;;;;28.30;6.10;;;;;;;;;;4985620;28;20431;-77
2023/01/10 14:13:49;;;;;;;27.63;6.00;;;;;;;;;;4990277;28;20432;-77
2023/01/10 14:16:48;;;;;;;22.30;5.50;;;;;;;;;;5005841;28;20439;-77
2023/01/10 14:19:42;;;;;;;25.55;6.78;;;6.50;99.90;;;;;;4993188;27;20427;-77
2023/01/10 14:22:21;;;;;;;24.60;5.85;;;;;;;;;;4989931;28;20496;-77
2023/01/10 14:24:50;;;;;;;26.73;5.73;;;;;;;;;;4989395;28;20427;-77
2023/01/10 14:27:17;;;;;;;20.83;5.25;;;;;;;;;;4987375;28;20442;-77
2023/01/10 14:29:55;;;;;;;23.85;5.15;;;;;;;;;;5006521;28;20834;-77
2023/01/10 14:32:39;;;;;;;21.70;4.90;;;;;;;;;;5060396;28;20468;-77
2023/01/10 14:35:07;;;;;;;24.85;5.65;;;;;;;;;;5010321;28;20431;-77
2023/01/10 14:37:38;;;;;;;25.47;5.60;;;;;;;;;;5009352;28;20511;-77
2023/01/10 14:40:06;;;;;;;25.83;5.35;;;;;;;;;;5020528;28;20413;-77
2023/01/10 14:42:34;;;;;;;25.45;5.93;;;;;;;;;;5041067;28;20437;-77
2023/01/10 14:45:03;;;;;;;20.70;5.28;;;;;;;;;;5001277;28;20434;-77
2023/01/10 14:47:31;;;;;;;22.15;5.20;;;;;;;;;;5009872;28;20457;-78
2023/01/10 14:50:02;;;;;;;30.80;7.28;;;;;;;;;;5047592;27;20429;-77
2023/01/10 14:52:28;;;;;;;25.83;5.38;;;;;;;;;;5068118;27;20457;-77